sensor_id;sensor_type;location;lat;lon;timestamp;pressure;altitude;pressure_sealevel;temperature
66403;BMP180;53212;52.112;5.144;2023-11-19T00:00:07;100723.00;;;13.30
66403;BMP180;53212;52.112;5.144;2023-11-19T00:02:38;100716.80;;;13.30
66403;BMP180;53212;52.112;5.144;2023-11-19T00:05:04;100715.40;;;13.30
66403;BMP180;53212;52.112;5.144;2023-11-19T00:07:31;100714.80;;;13.30
66403;BMP180;53212;52.112;5.144;2023-11-19T00:09:57;100722.80;;;13.30
66403;BMP180;53212;52.112;5.144;2023-11-19T00:12:22;100712.00;;;13.30
66403;BMP180;53212;52.112;5.144;2023-11-19T00:14:48;100714.40;;;13.30
66403;BMP180;53212;52.112;5.144;2023-11-19T00:17:13;100717.40;;;13.30
66403;BMP180;53212;52.112;5.144;2023-11-19T00:19:38;100716.60;;;13.30
66403;BMP180;53212;52.112;5.144;2023-11-19T00:22:04;100701.60;;;13.30
66403;BMP180;53212;52.112;5.144;2023-11-19T00:24:30;100699.60;;;13.30
66403;BMP180;53212;52.112;5.144;2023-11-19T00:26:56;100703.60;;;13.30
66403;BMP180;53212;52.112;5.144;2023-11-19T00:29:21;100711.60;;;13.30
66403;BMP180;53212;52.112;5.144;2023-11-19T00:31:47;100722.00;;;13.30
66403;BMP180;53212;52.112;5.144;2023-11-19T00:34:13;100709.40;;;13.30
66403;BMP180;53212;52.112;5.144;2023-11-19T00:36:39;100708.00;;;13.36
66403;BMP180;53212;52.112;5.144;2023-11-19T00:39:04;100705.40;;;13.38
66403;BMP180;53212;52.112;5.144;2023-11-19T00:41:30;100703.60;;;13.36
66403;BMP180;53212;52.112;5.144;2023-11-19T00:43:56;100695.40;;;13.40
66403;BMP180;53212;52.112;5.144;2023-11-19T00:46:21;100692.80;;;13.40
66403;BMP180;53212;52.112;5.144;2023-11-19T00:48:47;100681.20;;;13.40
66403;BMP180;53212;52.112;5.144;2023-11-19T00:51:12;100685.00;;;13.40
66403;BMP180;53212;52.112;5.144;2023-11-19T00:53:38;100687.00;;;13.40
66403;BMP180;53212;52.112;5.144;2023-11-19T00:56:04;100686.40;;;13.40
66403;BMP180;53212;52.112;5.144;2023-11-19T00:58:29;100683.00;;;13.40
66403;BMP180;53212;52.112;5.144;2023-11-19T01:00:54;100688.40;;;13.34
66403;BMP180;53212;52.112;5.144;2023-11-19T01:03:22;100691.60;;;13.30
66403;BMP180;53212;52.112;5.144;2023-11-19T01:05:47;100686.00;;;13.30
66403;BMP180;53212;52.112;5.144;2023-11-19T01:08:13;100691.00;;;13.30
66403;BMP180;53212;52.112;5.144;2023-11-19T01:10:40;100697.80;;;13.30
66403;BMP180;53212;52.112;5.144;2023-11-19T01:13:05;100684.40;;;13.30
66403;BMP180;53212;52.112;5.144;2023-11-19T01:15:32;100678.60;;;13.30
66403;BMP180;53212;52.112;5.144;2023-11-19T01:17:58;100667.60;;;13.30
66403;BMP180;53212;52.112;5.144;2023-11-19T01:20:23;100661.80;;;13.30
66403;BMP180;53212;52.112;5.144;2023-11-19T01:22:50;100655.80;;;13.30
66403;BMP180;53212;52.112;5.144;2023-11-19T01:25:16;100653.20;;;13.20
66403;BMP180;53212;52.112;5.144;2023-11-19T01:27:41;100647.20;;;13.20
66403;BMP180;53212;52.112;5.144;2023-11-19T01:30:08;100650.60;;;13.20
66403;BMP180;53212;52.112;5.144;2023-11-19T01:32:35;100662.40;;;13.20
66403;BMP180;53212;52.112;5.144;2023-11-19T01:35:03;100661.60;;;13.20
66403;BMP180;53212;52.112;5.144;2023-11-19T01:37:29;100660.40;;;13.20
66403;BMP180;53212;52.112;5.144;2023-11-19T01:39:55;100662.20;;;13.20
66403;BMP180;53212;52.112;5.144;2023-11-19T01:42:20;100667.60;;;13.20
66403;BMP180;53212;52.112;5.144;2023-11-19T01:45:04;100664.20;;;13.20
66403;BMP180;53212;52.112;5.144;2023-11-19T01:47:33;100662.40;;;13.10
66403;BMP180;53212;52.112;5.144;2023-11-19T01:49:59;100666.00;;;13.10
66403;BMP180;53212;52.112;5.144;2023-11-19T01:52:25;100658.60;;;13.08
66403;BMP180;53212;52.112;5.144;2023-11-19T01:54:53;100659.80;;;13.00
66403;BMP180;53212;52.112;5.144;2023-11-19T01:57:20;100660.20;;;12.90
66403;BMP180;53212;52.112;5.144;2023-11-19T01:59:47;100658.40;;;12.90
66403;BMP180;53212;52.112;5.144;2023-11-19T02:02:12;100666.80;;;12.80
66403;BMP180;53212;52.112;5.144;2023-11-19T02:04:38;100660.40;;;12.70
66403;BMP180;53212;52.112;5.144;2023-11-19T02:07:04;100663.40;;;12.70
66403;BMP180;53212;52.112;5.144;2023-11-19T02:09:30;100660.80;;;12.60
66403;BMP180;53212;52.112;5.144;2023-11-19T02:11:55;100658.80;;;12.60
66403;BMP180;53212;52.112;5.144;2023-11-19T02:14:25;100659.80;;;12.50
66403;BMP180;53212;52.112;5.144;2023-11-19T02:16:51;100653.80;;;12.42
66403;BMP180;53212;52.112;5.144;2023-11-19T02:19:20;100654.80;;;12.40
66403;BMP180;53212;52.112;5.144;2023-11-19T02:21:45;100660.80;;;12.30
66403;BMP180;53212;52.112;5.144;2023-11-19T02:24:14;100671.40;;;12.30
66403;BMP180;53212;52.112;5.144;2023-11-19T02:27:02;100678.60;;;12.30
66403;BMP180;53212;52.112;5.144;2023-11-19T02:29:28;100681.80;;;12.28
66403;BMP180;53212;52.112;5.144;2023-11-19T02:31:53;100676.60;;;12.30
66403;BMP180;53212;52.112;5.144;2023-11-19T02:34:20;100679.20;;;12.30
66403;BMP180;53212;52.112;5.144;2023-11-19T02:36:47;100682.60;;;12.30
66403;BMP180;53212;52.112;5.144;2023-11-19T02:39:12;100675.80;;;12.30
66403;BMP180;53212;52.112;5.144;2023-11-19T02:41:39;100673.40;;;12.28
66403;BMP180;53212;52.112;5.144;2023-11-19T02:44:06;100676.20;;;12.20
66403;BMP180;53212;52.112;5.144;2023-11-19T02:46:32;100659.80;;;12.20
66403;BMP180;53212;52.112;5.144;2023-11-19T02:48:57;100669.60;;;12.20
66403;BMP180;53212;52.112;5.144;2023-11-19T02:51:23;100659.60;;;12.20
66403;BMP180;53212;52.112;5.144;2023-11-19T02:53:48;100652.80;;;12.20
66403;BMP180;53212;52.112;5.144;2023-11-19T02:56:14;100665.20;;;12.20
66403;BMP180;53212;52.112;5.144;2023-11-19T02:59:00;100663.40;;;12.28
66403;BMP180;53212;52.112;5.144;2023-11-19T03:01:32;100652.40;;;12.20
66403;BMP180;53212;52.112;5.144;2023-11-19T03:04:00;100648.80;;;12.20
66403;BMP180;53212;52.112;5.144;2023-11-19T03:06:27;100649.60;;;12.20
66403;BMP180;53212;52.112;5.144;2023-11-19T03:08:54;100651.40;;;12.20
66403;BMP180;53212;52.112;5.144;2023-11-19T03:11:20;100649.00;;;12.10
66403;BMP180;53212;52.112;5.144;2023-11-19T03:13:46;100656.20;;;12.10
66403;BMP180;53212;52.112;5.144;2023-11-19T03:16:12;100650.80;;;12.10
66403;BMP180;53212;52.112;5.144;2023-11-19T03:18:38;100654.20;;;12.00
66403;BMP180;53212;52.112;5.144;2023-11-19T03:21:06;100655.00;;;12.00
66403;BMP180;53212;52.112;5.144;2023-11-19T03:23:33;100661.20;;;12.00
66403;BMP180;53212;52.112;5.144;2023-11-19T03:25:59;100664.00;;;12.00
66403;BMP180;53212;52.112;5.144;2023-11-19T03:28:24;100657.80;;;11.92
66403;BMP180;53212;52.112;5.144;2023-11-19T03:30:50;100654.40;;;11.90
66403;BMP180;53212;52.112;5.144;2023-11-19T03:33:15;100646.60;;;11.90
66403;BMP180;53212;52.112;5.144;2023-11-19T03:35:40;100650.20;;;11.80
66403;BMP180;53212;52.112;5.144;2023-11-19T03:38:06;100642.80;;;11.80
66403;BMP180;53212;52.112;5.144;2023-11-19T03:40:32;100627.40;;;11.70
66403;BMP180;53212;52.112;5.144;2023-11-19T03:42:57;100623.00;;;11.70
66403;BMP180;53212;52.112;5.144;2023-11-19T03:45:24;100628.40;;;11.60
66403;BMP180;53212;52.112;5.144;2023-11-19T03:47:50;100644.20;;;11.60
66403;BMP180;53212;52.112;5.144;2023-11-19T03:50:16;100648.80;;;11.50
66403;BMP180;53212;52.112;5.144;2023-11-19T03:52:41;100652.60;;;11.50
66403;BMP180;53212;52.112;5.144;2023-11-19T03:55:07;100657.40;;;11.50
66403;BMP180;53212;52.112;5.144;2023-11-19T03:57:34;100657.00;;;11.40
66403;BMP180;53212;52.112;5.144;2023-11-19T04:00:01;100657.80;;;11.40
66403;BMP180;53212;52.112;5.144;2023-11-19T04:02:32;100658.80;;;11.40
66403;BMP180;53212;52.112;5.144;2023-11-19T04:04:57;100656.00;;;11.38
66403;BMP180;53212;52.112;5.144;2023-11-19T04:07:23;100658.40;;;11.38
66403;BMP180;53212;52.112;5.144;2023-11-19T04:09:48;100657.00;;;11.30
66403;BMP180;53212;52.112;5.144;2023-11-19T04:12:14;100661.00;;;11.30
66403;BMP180;53212;52.112;5.144;2023-11-19T04:14:39;100666.00;;;11.30
66403;BMP180;53212;52.112;5.144;2023-11-19T04:17:05;100670.60;;;11.30
66403;BMP180;53212;52.112;5.144;2023-11-19T04:19:31;100678.20;;;11.30
66403;BMP180;53212;52.112;5.144;2023-11-19T04:21:58;100684.20;;;11.30
66403;BMP180;53212;52.112;5.144;2023-11-19T04:24:23;100686.40;;;11.30
66403;BMP180;53212;52.112;5.144;2023-11-19T04:26:49;100682.80;;;11.30
66403;BMP180;53212;52.112;5.144;2023-11-19T04:29:16;100686.00;;;11.30
66403;BMP180;53212;52.112;5.144;2023-11-19T04:31:43;100684.60;;;11.30
66403;BMP180;53212;52.112;5.144;2023-11-19T04:34:12;100676.60;;;11.30
66403;BMP180;53212;52.112;5.144;2023-11-19T04:36:37;100666.00;;;11.30
66403;BMP180;53212;52.112;5.144;2023-11-19T04:39:04;100667.60;;;11.30
66403;BMP180;53212;52.112;5.144;2023-11-19T04:41:51;100678.20;;;11.30
66403;BMP180;53212;52.112;5.144;2023-11-19T04:44:20;100680.40;;;11.30
66403;BMP180;53212;52.112;5.144;2023-11-19T04:46:46;100673.40;;;11.30
66403;BMP180;53212;52.112;5.144;2023-11-19T04:49:12;100671.60;;;11.30
66403;BMP180;53212;52.112;5.144;2023-11-19T04:51:43;100668.40;;;11.30
66403;BMP180;53212;52.112;5.144;2023-11-19T04:54:10;100666.00;;;11.30
66403;BMP180;53212;52.112;5.144;2023-11-19T04:56:36;100656.00;;;11.30
66403;BMP180;53212;52.112;5.144;2023-11-19T04:59:03;100653.80;;;11.30
66403;BMP180;53212;52.112;5.144;2023-11-19T05:01:29;100660.40;;;11.30
66403;BMP180;53212;52.112;5.144;2023-11-19T05:03:56;100660.80;;;11.30
66403;BMP180;53212;52.112;5.144;2023-11-19T05:06:26;100666.20;;;11.30
66403;BMP180;53212;52.112;5.144;2023-11-19T05:08:53;100674.60;;;11.30
66403;BMP180;53212;52.112;5.144;2023-11-19T05:11:19;100671.20;;;11.30
66403;BMP180;53212;52.112;5.144;2023-11-19T05:13:45;100676.80;;;11.24
66403;BMP180;53212;52.112;5.144;2023-11-19T05:16:11;100678.40;;;11.20
66403;BMP180;53212;52.112;5.144;2023-11-19T05:18:39;100682.00;;;11.20
66403;BMP180;53212;52.112;5.144;2023-11-19T05:21:05;100673.00;;;11.28
66403;BMP180;53212;52.112;5.144;2023-11-19T05:23:32;100670.20;;;11.22
66403;BMP180;53212;52.112;5.144;2023-11-19T05:25:59;100668.60;;;11.20
66403;BMP180;53212;52.112;5.144;2023-11-19T05:28:25;100669.40;;;11.20
66403;BMP180;53212;52.112;5.144;2023-11-19T05:30:51;100672.60;;;11.20
66403;BMP180;53212;52.112;5.144;2023-11-19T05:33:16;100677.60;;;11.20
66403;BMP180;53212;52.112;5.144;2023-11-19T05:35:42;100672.40;;;11.18
66403;BMP180;53212;52.112;5.144;2023-11-19T05:38:07;100680.80;;;11.10
66403;BMP180;53212;52.112;5.144;2023-11-19T05:40:35;100680.40;;;11.10
66403;BMP180;53212;52.112;5.144;2023-11-19T05:43:00;100681.80;;;11.10
66403;BMP180;53212;52.112;5.144;2023-11-19T05:45:26;100679.20;;;11.10
66403;BMP180;53212;52.112;5.144;2023-11-19T05:47:51;100678.60;;;11.00
66403;BMP180;53212;52.112;5.144;2023-11-19T05:50:17;100681.40;;;11.00
66403;BMP180;53212;52.112;5.144;2023-11-19T05:52:43;100683.40;;;11.00
66403;BMP180;53212;52.112;5.144;2023-11-19T05:55:08;100686.40;;;11.00
66403;BMP180;53212;52.112;5.144;2023-11-19T05:57:37;100679.20;;;11.00
66403;BMP180;53212;52.112;5.144;2023-11-19T06:00:04;100681.00;;;11.00
66403;BMP180;53212;52.112;5.144;2023-11-19T06:02:34;100680.40;;;11.00
66403;BMP180;53212;52.112;5.144;2023-11-19T06:05:00;100667.80;;;11.00
66403;BMP180;53212;52.112;5.144;2023-11-19T06:07:27;100677.80;;;11.00
66403;BMP180;53212;52.112;5.144;2023-11-19T06:09:53;100669.00;;;11.00
66403;BMP180;53212;52.112;5.144;2023-11-19T06:12:18;100671.00;;;11.00
66403;BMP180;53212;52.112;5.144;2023-11-19T06:14:44;100671.00;;;11.00
66403;BMP180;53212;52.112;5.144;2023-11-19T06:17:09;100671.60;;;11.10
66403;BMP180;53212;52.112;5.144;2023-11-19T06:19:37;100669.00;;;11.10
66403;BMP180;53212;52.112;5.144;2023-11-19T06:22:03;100668.60;;;11.10
66403;BMP180;53212;52.112;5.144;2023-11-19T06:24:29;100672.60;;;11.10
66403;BMP180;53212;52.112;5.144;2023-11-19T06:26:54;100676.40;;;11.16
66403;BMP180;53212;52.112;5.144;2023-11-19T06:29:20;100678.80;;;11.20
66403;BMP180;53212;52.112;5.144;2023-11-19T06:31:45;100685.40;;;11.18
66403;BMP180;53212;52.112;5.144;2023-11-19T06:34:14;100686.20;;;11.10
66403;BMP180;53212;52.112;5.144;2023-11-19T06:36:39;100689.00;;;11.10
66403;BMP180;53212;52.112;5.144;2023-11-19T06:39:05;100686.40;;;11.10
66403;BMP180;53212;52.112;5.144;2023-11-19T06:41:31;100689.60;;;11.10
66403;BMP180;53212;52.112;5.144;2023-11-19T06:43:56;100693.60;;;11.10
66403;BMP180;53212;52.112;5.144;2023-11-19T06:46:22;100695.20;;;11.10
66403;BMP180;53212;52.112;5.144;2023-11-19T06:48:47;100699.20;;;11.10
66403;BMP180;53212;52.112;5.144;2023-11-19T06:51:13;100697.60;;;11.10
66403;BMP180;53212;52.112;5.144;2023-11-19T06:53:39;100702.20;;;11.10
66403;BMP180;53212;52.112;5.144;2023-11-19T06:56:23;100698.60;;;11.10
66403;BMP180;53212;52.112;5.144;2023-11-19T06:58:50;100697.80;;;11.00
66403;BMP180;53212;52.112;5.144;2023-11-19T07:01:17;100699.80;;;11.00
66403;BMP180;53212;52.112;5.144;2023-11-19T07:03:45;100703.40;;;11.00
66403;BMP180;53212;52.112;5.144;2023-11-19T07:06:11;100707.00;;;11.00
66403;BMP180;53212;52.112;5.144;2023-11-19T07:08:38;100706.80;;;11.00
66403;BMP180;53212;52.112;5.144;2023-11-19T07:11:04;100707.40;;;11.00
66403;BMP180;53212;52.112;5.144;2023-11-19T07:13:30;100707.40;;;11.00
66403;BMP180;53212;52.112;5.144;2023-11-19T07:15:58;100708.40;;;11.00
66403;BMP180;53212;52.112;5.144;2023-11-19T07:18:24;100711.60;;;11.00
66403;BMP180;53212;52.112;5.144;2023-11-19T07:20:50;100716.00;;;11.00
66403;BMP180;53212;52.112;5.144;2023-11-19T07:23:15;100717.00;;;11.00
66403;BMP180;53212;52.112;5.144;2023-11-19T07:25:43;100720.80;;;11.00
66403;BMP180;53212;52.112;5.144;2023-11-19T07:28:13;100721.20;;;11.00
66403;BMP180;53212;52.112;5.144;2023-11-19T07:30:39;100723.40;;;11.00
66403;BMP180;53212;52.112;5.144;2023-11-19T07:33:05;100728.60;;;11.00
66403;BMP180;53212;52.112;5.144;2023-11-19T07:35:31;100728.40;;;11.08
66403;BMP180;53212;52.112;5.144;2023-11-19T07:37:57;100726.80;;;11.10
66403;BMP180;53212;52.112;5.144;2023-11-19T07:40:24;100728.20;;;11.10
66403;BMP180;53212;52.112;5.144;2023-11-19T07:42:50;100728.00;;;11.18
66403;BMP180;53212;52.112;5.144;2023-11-19T07:45:16;100728.60;;;11.20
66403;BMP180;53212;52.112;5.144;2023-11-19T07:47:42;100728.60;;;11.20
66403;BMP180;53212;52.112;5.144;2023-11-19T07:50:10;100731.80;;;11.24
66403;BMP180;53212;52.112;5.144;2023-11-19T07:52:37;100729.60;;;11.30
66403;BMP180;53212;52.112;5.144;2023-11-19T07:55:02;100733.00;;;11.40
66403;BMP180;53212;52.112;5.144;2023-11-19T07:57:28;100726.60;;;11.40
66403;BMP180;53212;52.112;5.144;2023-11-19T07:59:59;100725.40;;;11.40
66403;BMP180;53212;52.112;5.144;2023-11-19T08:02:26;100729.80;;;11.40
66403;BMP180;53212;52.112;5.144;2023-11-19T08:04:52;100728.40;;;11.40
66403;BMP180;53212;52.112;5.144;2023-11-19T08:07:18;100726.40;;;11.40
66403;BMP180;53212;52.112;5.144;2023-11-19T08:09:45;100731.00;;;11.50
66403;BMP180;53212;52.112;5.144;2023-11-19T08:12:10;100734.60;;;11.50
66403;BMP180;53212;52.112;5.144;2023-11-19T08:14:36;100731.20;;;11.56
66403;BMP180;53212;52.112;5.144;2023-11-19T08:17:03;100729.20;;;11.60
66403;BMP180;53212;52.112;5.144;2023-11-19T08:19:28;100720.40;;;11.60
66403;BMP180;53212;52.112;5.144;2023-11-19T08:21:54;100725.80;;;11.60
66403;BMP180;53212;52.112;5.144;2023-11-19T08:24:19;100722.60;;;11.68
66403;BMP180;53212;52.112;5.144;2023-11-19T08:26:44;100726.60;;;11.70
66403;BMP180;53212;52.112;5.144;2023-11-19T08:29:10;100730.00;;;11.74
66403;BMP180;53212;52.112;5.144;2023-11-19T08:31:35;100736.00;;;11.80
66403;BMP180;53212;52.112;5.144;2023-11-19T08:34:01;100735.80;;;11.84
66403;BMP180;53212;52.112;5.144;2023-11-19T08:36:26;100734.80;;;11.90
66403;BMP180;53212;52.112;5.144;2023-11-19T08:38:53;100742.80;;;12.00
66403;BMP180;53212;52.112;5.144;2023-11-19T08:41:20;100745.40;;;12.00
66403;BMP180;53212;52.112;5.144;2023-11-19T08:43:47;100744.40;;;12.00
66403;BMP180;53212;52.112;5.144;2023-11-19T08:46:12;100742.60;;;12.00
66403;BMP180;53212;52.112;5.144;2023-11-19T08:48:38;100748.60;;;12.00
66403;BMP180;53212;52.112;5.144;2023-11-19T08:51:04;100753.20;;;12.10
66403;BMP180;53212;52.112;5.144;2023-11-19T08:53:29;100757.60;;;12.10
66403;BMP180;53212;52.112;5.144;2023-11-19T08:55:55;100761.40;;;12.14
66403;BMP180;53212;52.112;5.144;2023-11-19T08:58:20;100759.20;;;12.20
66403;BMP180;53212;52.112;5.144;2023-11-19T09:00:46;100756.60;;;12.20
66403;BMP180;53212;52.112;5.144;2023-11-19T09:03:12;100759.60;;;12.20
66403;BMP180;53212;52.112;5.144;2023-11-19T09:05:37;100757.00;;;12.30
66403;BMP180;53212;52.112;5.144;2023-11-19T09:08:04;100752.20;;;12.30
66403;BMP180;53212;52.112;5.144;2023-11-19T09:10:29;100751.20;;;12.30
66403;BMP180;53212;52.112;5.144;2023-11-19T09:12:55;100751.20;;;12.30
66403;BMP180;53212;52.112;5.144;2023-11-19T09:15:20;100748.00;;;12.40
66403;BMP180;53212;52.112;5.144;2023-11-19T09:17:46;100747.60;;;12.36
66403;BMP180;53212;52.112;5.144;2023-11-19T09:20:11;100744.40;;;12.40
66403;BMP180;53212;52.112;5.144;2023-11-19T09:22:40;100748.00;;;12.40
66403;BMP180;53212;52.112;5.144;2023-11-19T09:25:06;100747.80;;;12.40
66403;BMP180;53212;52.112;5.144;2023-11-19T09:27:31;100751.80;;;12.46
66403;BMP180;53212;52.112;5.144;2023-11-19T09:29:56;100746.80;;;12.50
66403;BMP180;53212;52.112;5.144;2023-11-19T09:32:24;100750.60;;;12.60
66403;BMP180;53212;52.112;5.144;2023-11-19T09:34:49;100749.80;;;12.70
66403;BMP180;53212;52.112;5.144;2023-11-19T09:37:15;100745.40;;;12.80
66403;BMP180;53212;52.112;5.144;2023-11-19T09:39:40;100756.80;;;12.90
66403;BMP180;53212;52.112;5.144;2023-11-19T09:42:09;100753.60;;;12.80
66403;BMP180;53212;52.112;5.144;2023-11-19T09:44:37;100753.00;;;12.72
66403;BMP180;53212;52.112;5.144;2023-11-19T09:47:04;100749.60;;;12.70
66403;BMP180;53212;52.112;5.144;2023-11-19T09:49:30;100743.80;;;12.80
66403;BMP180;53212;52.112;5.144;2023-11-19T09:51:55;100740.20;;;12.90
66403;BMP180;53212;52.112;5.144;2023-11-19T09:54:21;100742.40;;;12.90
66403;BMP180;53212;52.112;5.144;2023-11-19T09:56:47;100741.20;;;13.00
66403;BMP180;53212;52.112;5.144;2023-11-19T09:59:13;100742.00;;;13.00
66403;BMP180;53212;52.112;5.144;2023-11-19T10:01:39;100741.00;;;13.10
66403;BMP180;53212;52.112;5.144;2023-11-19T10:04:06;100740.80;;;13.06
66403;BMP180;53212;52.112;5.144;2023-11-19T10:06:32;100738.60;;;13.02
66403;BMP180;53212;52.112;5.144;2023-11-19T10:08:57;100745.20;;;13.10
66403;BMP180;53212;52.112;5.144;2023-11-19T10:11:24;100730.60;;;13.28
66403;BMP180;53212;52.112;5.144;2023-11-19T10:13:51;100729.00;;;13.54
66403;BMP180;53212;52.112;5.144;2023-11-19T10:16:17;100725.60;;;13.80
66403;BMP180;53212;52.112;5.144;2023-11-19T10:18:45;100717.60;;;13.92
66403;BMP180;53212;52.112;5.144;2023-11-19T10:21:14;100723.40;;;14.10
66403;BMP180;53212;52.112;5.144;2023-11-19T10:26:14;100716.80;;;14.20
66403;BMP180;53212;52.112;5.144;2023-11-19T10:28:40;100717.00;;;14.30
66403;BMP180;53212;52.112;5.144;2023-11-19T10:31:09;100718.80;;;14.30
66403;BMP180;53212;52.112;5.144;2023-11-19T10:33:38;100712.60;;;14.20
66403;BMP180;53212;52.112;5.144;2023-11-19T10:36:04;100719.80;;;14.10
66403;BMP180;53212;52.112;5.144;2023-11-19T10:38:30;100717.80;;;14.00
66403;BMP180;53212;52.112;5.144;2023-11-19T10:40:56;100713.60;;;14.00
66403;BMP180;53212;52.112;5.144;2023-11-19T10:43:22;100716.40;;;14.10
66403;BMP180;53212;52.112;5.144;2023-11-19T10:45:48;100717.40;;;14.20
66403;BMP180;53212;52.112;5.144;2023-11-19T10:48:14;100716.00;;;14.30
66403;BMP180;53212;52.112;5.144;2023-11-19T10:50:42;100711.40;;;14.30
66403;BMP180;53212;52.112;5.144;2023-11-19T10:53:11;100702.60;;;14.38
66403;BMP180;53212;52.112;5.144;2023-11-19T10:55:39;100708.20;;;14.30
66403;BMP180;53212;52.112;5.144;2023-11-19T10:58:09;100709.20;;;14.32
66403;BMP180;53212;52.112;5.144;2023-11-19T11:00:47;100713.40;;;14.36
66403;BMP180;53212;52.112;5.144;2023-11-19T11:03:17;100715.80;;;14.30
66403;BMP180;53212;52.112;5.144;2023-11-19T11:05:42;100711.80;;;14.30
66403;BMP180;53212;52.112;5.144;2023-11-19T11:08:09;100717.20;;;14.20
66403;BMP180;53212;52.112;5.144;2023-11-19T11:10:43;100711.00;;;14.20
66403;BMP180;53212;52.112;5.144;2023-11-19T11:13:09;100712.80;;;14.20
66403;BMP180;53212;52.112;5.144;2023-11-19T11:15:36;100711.00;;;14.20
66403;BMP180;53212;52.112;5.144;2023-11-19T11:18:02;100710.00;;;14.20
66403;BMP180;53212;52.112;5.144;2023-11-19T11:20:32;100716.00;;;14.20
66403;BMP180;53212;52.112;5.144;2023-11-19T11:28:49;100700.80;;;14.30
66403;BMP180;53212;52.112;5.144;2023-11-19T11:37:18;100707.00;;;14.20
66403;BMP180;53212;52.112;5.144;2023-11-19T11:39:46;100701.40;;;14.22
66403;BMP180;53212;52.112;5.144;2023-11-19T11:45:08;100699.20;;;14.20
66403;BMP180;53212;52.112;5.144;2023-11-19T11:50:13;100696.40;;;14.10
66403;BMP180;53212;52.112;5.144;2023-11-19T11:55:26;100694.60;;;14.00
66403;BMP180;53212;52.112;5.144;2023-11-19T11:57:52;100694.40;;;13.92
66403;BMP180;53212;52.112;5.144;2023-11-19T12:00:29;100693.40;;;13.90
66403;BMP180;53212;52.112;5.144;2023-11-19T12:02:56;100687.80;;;13.80
66403;BMP180;53212;52.112;5.144;2023-11-19T12:05:22;100688.60;;;13.80
66403;BMP180;53212;52.112;5.144;2023-11-19T12:07:56;100688.20;;;13.90
66403;BMP180;53212;52.112;5.144;2023-11-19T12:10:24;100676.40;;;14.04
66403;BMP180;53212;52.112;5.144;2023-11-19T12:12:53;100678.80;;;14.20
66403;BMP180;53212;52.112;5.144;2023-11-19T12:15:18;100678.00;;;14.20
66403;BMP180;53212;52.112;5.144;2023-11-19T12:17:51;100681.80;;;14.20
66403;BMP180;53212;52.112;5.144;2023-11-19T12:20:21;100676.00;;;14.26
66403;BMP180;53212;52.112;5.144;2023-11-19T12:22:48;100672.60;;;14.14
66403;BMP180;53212;52.112;5.144;2023-11-19T12:25:15;100672.40;;;14.10
66403;BMP180;53212;52.112;5.144;2023-11-19T12:27:50;100678.40;;;14.10
66403;BMP180;53212;52.112;5.144;2023-11-19T12:30:25;100668.60;;;14.00
66403;BMP180;53212;52.112;5.144;2023-11-19T12:32:52;100681.40;;;14.00
66403;BMP180;53212;52.112;5.144;2023-11-19T12:35:21;100683.60;;;14.00
66403;BMP180;53212;52.112;5.144;2023-11-19T12:37:49;100686.00;;;13.94
66403;BMP180;53212;52.112;5.144;2023-11-19T12:40:18;100683.80;;;14.00
66403;BMP180;53212;52.112;5.144;2023-11-19T12:42:48;100685.20;;;14.04
66403;BMP180;53212;52.112;5.144;2023-11-19T12:45:14;100687.00;;;14.08
66403;BMP180;53212;52.112;5.144;2023-11-19T12:47:41;100684.60;;;14.04
66403;BMP180;53212;52.112;5.144;2023-11-19T12:50:08;100687.60;;;14.00
66403;BMP180;53212;52.112;5.144;2023-11-19T12:52:35;100684.80;;;14.08
66403;BMP180;53212;52.112;5.144;2023-11-19T12:57:49;100681.60;;;14.00
66403;BMP180;53212;52.112;5.144;2023-11-19T13:00:26;100687.80;;;13.90
66403;BMP180;53212;52.112;5.144;2023-11-19T13:02:54;100689.80;;;13.90
66403;BMP180;53212;52.112;5.144;2023-11-19T13:05:32;100687.60;;;13.88
66403;BMP180;53212;52.112;5.144;2023-11-19T13:08:08;100683.80;;;13.80
66403;BMP180;53212;52.112;5.144;2023-11-19T13:10:51;100684.40;;;13.80
66403;BMP180;53212;52.112;5.144;2023-11-19T13:13:17;100681.20;;;13.80
66403;BMP180;53212;52.112;5.144;2023-11-19T13:15:43;100675.80;;;13.80
66403;BMP180;53212;52.112;5.144;2023-11-19T13:18:10;100674.00;;;13.80
66403;BMP180;53212;52.112;5.144;2023-11-19T13:20:36;100681.40;;;13.80
66403;BMP180;53212;52.112;5.144;2023-11-19T13:23:04;100682.20;;;13.88
66403;BMP180;53212;52.112;5.144;2023-11-19T13:25:31;100683.20;;;13.90
66403;BMP180;53212;52.112;5.144;2023-11-19T13:28:00;100668.80;;;14.00
66403;BMP180;53212;52.112;5.144;2023-11-19T13:30:26;100670.80;;;14.06
66403;BMP180;53212;52.112;5.144;2023-11-19T13:32:52;100666.40;;;14.10
66403;BMP180;53212;52.112;5.144;2023-11-19T13:35:19;100661.60;;;14.10
66403;BMP180;53212;52.112;5.144;2023-11-19T13:37:45;100659.60;;;14.10
66403;BMP180;53212;52.112;5.144;2023-11-19T13:40:12;100661.60;;;14.10
66403;BMP180;53212;52.112;5.144;2023-11-19T13:42:42;100664.00;;;14.10
66403;BMP180;53212;52.112;5.144;2023-11-19T13:45:11;100655.20;;;14.10
66403;BMP180;53212;52.112;5.144;2023-11-19T13:47:43;100659.60;;;14.10
66403;BMP180;53212;52.112;5.144;2023-11-19T13:50:10;100667.60;;;14.10
66403;BMP180;53212;52.112;5.144;2023-11-19T13:52:38;100661.80;;;14.10
66403;BMP180;53212;52.112;5.144;2023-11-19T13:55:09;100668.00;;;14.00
66403;BMP180;53212;52.112;5.144;2023-11-19T13:57:36;100665.20;;;14.00
66403;BMP180;53212;52.112;5.144;2023-11-19T14:00:03;100665.80;;;13.90
66403;BMP180;53212;52.112;5.144;2023-11-19T14:02:36;100662.80;;;13.90
66403;BMP180;53212;52.112;5.144;2023-11-19T14:05:01;100669.00;;;13.90
66403;BMP180;53212;52.112;5.144;2023-11-19T14:07:27;100668.00;;;13.86
66403;BMP180;53212;52.112;5.144;2023-11-19T14:09:53;100673.20;;;13.90
66403;BMP180;53212;52.112;5.144;2023-11-19T14:12:19;100669.20;;;13.90
66403;BMP180;53212;52.112;5.144;2023-11-19T14:14:44;100665.20;;;13.80
66403;BMP180;53212;52.112;5.144;2023-11-19T14:17:10;100661.20;;;13.70
66403;BMP180;53212;52.112;5.144;2023-11-19T14:19:37;100660.00;;;13.68